createdAt,value
2023-05-10T00:01:56.974Z,99849.03
2023-05-10T00:04:28.637Z,99842.28
2023-05-10T00:06:56.283Z,99834.75
2023-05-10T00:09:24.319Z,99843.66
2023-05-10T00:11:51.822Z,99841.75
2023-05-10T00:14:19.513Z,99835.72
2023-05-10T00:16:48.666Z,99844.63
2023-05-10T00:19:16.128Z,99831.38
2023-05-10T00:21:44.124Z,99841.91
2023-05-10T00:24:12.139Z,99833.09
2023-05-10T00:26:42.135Z,99841.50
2023-05-10T00:29:09.488Z,99836.81
2023-05-10T00:31:36.769Z,99835.69
2023-05-10T00:34:04.034Z,99834.50
2023-05-10T00:36:32.468Z,99839.00
2023-05-10T00:38:59.986Z,99834.84
2023-05-10T00:41:27.282Z,99840.19
2023-05-10T00:43:54.558Z,99834.84
2023-05-10T00:46:22.717Z,99837.97
2023-05-10T00:48:51.986Z,99836.56
2023-05-10T00:51:19.756Z,99830.84
2023-05-10T00:53:47.582Z,99832.25
2023-05-10T00:56:16.564Z,99827.47
2023-05-10T00:58:44.047Z,99828.28
2023-05-10T01:01:12.111Z,99821.50
2023-05-10T01:03:41.468Z,99818.47
2023-05-10T01:06:09.084Z,99820.22
2023-05-10T01:08:38.124Z,99814.09
2023-05-10T01:11:06.335Z,99819.69
2023-05-10T01:13:40.716Z,99816.84
2023-05-10T01:16:09.322Z,99817.34
2023-05-10T01:18:42.750Z,99808.72
2023-05-10T01:21:33.280Z,99817.16
2023-05-10T01:24:50.182Z,99813.56
2023-05-10T01:28:00.895Z,99819.19
2023-05-10T01:30:47.563Z,99815.47
2023-05-10T01:33:30.286Z,99810.38
2023-05-10T01:36:27.310Z,99814.69
2023-05-10T01:39:08.957Z,99822.13
2023-05-10T01:42:09.625Z,99818.47
2023-05-10T01:44:54.208Z,99811.16
2023-05-10T01:47:44.104Z,99809.06
2023-05-10T01:50:19.908Z,99805.97
2023-05-10T01:52:58.086Z,99807.16
2023-05-10T01:55:34.320Z,99802.56
2023-05-10T01:58:15.269Z,99799.88
2023-05-10T02:00:46.819Z,99802.81
2023-05-10T02:03:16.538Z,99795.88
2023-05-10T02:05:47.156Z,99795.28
2023-05-10T02:08:16.019Z,99791.38
2023-05-10T02:10:46.854Z,99790.19
2023-05-10T02:13:17.573Z,99786.75
2023-05-10T02:15:49.632Z,99789.16
2023-05-10T02:18:18.332Z,99794.50
2023-05-10T02:20:48.115Z,99793.13
2023-05-10T02:23:18.648Z,99787.38
2023-05-10T02:25:49.488Z,99787.75
2023-05-10T02:28:18.579Z,99795.34
2023-05-10T02:30:49.166Z,99785.97
2023-05-10T02:33:16.649Z,99793.00
2023-05-10T02:35:44.180Z,99794.84
2023-05-10T02:38:13.733Z,99782.22
2023-05-10T02:40:43.745Z,99787.16
2023-05-10T02:43:14.827Z,99790.88
2023-05-10T02:45:44.728Z,99786.63
2023-05-10T02:48:12.898Z,99793.13
2023-05-10T02:50:46.344Z,99793.38
2023-05-10T02:53:24.101Z,99791.94
2023-05-10T02:55:54.874Z,99785.25
2023-05-10T02:58:23.505Z,99788.66
2023-05-10T03:00:51.739Z,99776.16
2023-05-10T03:03:21.123Z,99777.56
2023-05-10T03:05:48.413Z,99782.34
2023-05-10T03:08:16.694Z,99787.88
2023-05-10T03:11:16.130Z,99793.00
2023-05-10T03:14:08.131Z,99782.94
2023-05-10T03:16:48.179Z,99785.38
2023-05-10T03:19:29.047Z,99781.22
2023-05-10T03:22:01.420Z,99790.22
2023-05-10T03:24:29.603Z,99793.16
2023-05-10T03:27:04.001Z,99790.50
2023-05-10T03:29:33.348Z,99789.00
2023-05-10T03:32:01.720Z,99785.69
2023-05-10T03:34:32.726Z,99787.94
2023-05-10T03:37:00.154Z,99792.28
2023-05-10T03:39:28.345Z,99800.00
2023-05-10T03:41:55.586Z,99795.38
2023-05-10T03:44:23.760Z,99789.53
2023-05-10T03:46:51.032Z,99786.41
2023-05-10T03:49:18.391Z,99785.19
2023-05-10T03:51:46.527Z,99794.72
2023-05-10T03:54:13.823Z,99793.00
2023-05-10T03:56:42.893Z,99792.13
2023-05-10T03:59:11.117Z,99792.81
2023-05-10T04:01:38.551Z,99794.34
2023-05-10T04:04:05.931Z,99798.19
2023-05-10T04:06:34.182Z,99800.00
2023-05-10T04:09:05.150Z,99796.19
2023-05-10T04:11:32.490Z,99794.19
2023-05-10T04:13:59.754Z,99792.63
2023-05-10T04:16:28.014Z,99798.16
2023-05-10T04:18:56.308Z,99801.28
2023-05-10T04:21:24.584Z,99803.44
2023-05-10T04:23:52.162Z,99805.56
2023-05-10T04:26:20.173Z,99806.09
2023-05-10T04:28:47.866Z,99806.91
2023-05-10T04:31:15.172Z,99803.63
2023-05-10T04:33:43.357Z,99802.94
2023-05-10T04:36:10.655Z,99807.56
2023-05-10T04:38:38.774Z,99804.97
2023-05-10T04:41:11.586Z,99806.56
2023-05-10T04:43:39.581Z,99810.34
2023-05-10T04:46:08.682Z,99823.84
2023-05-10T04:48:37.059Z,99832.06
2023-05-10T04:51:06.188Z,99816.81
2023-05-10T04:53:33.805Z,99814.53
2023-05-10T04:56:02.051Z,99818.72
2023-05-10T04:58:30.262Z,99814.28
2023-05-10T05:00:58.402Z,99812.97
2023-05-10T05:03:25.787Z,99806.72
2023-05-10T05:05:54.112Z,99805.38
2023-05-10T05:08:21.423Z,99803.94
2023-05-10T05:10:51.417Z,99809.44
2023-05-10T05:13:20.093Z,99816.75
2023-05-10T05:15:48.683Z,99825.72
2023-05-10T05:18:16.865Z,99821.22
2023-05-10T05:20:44.643Z,99821.69
2023-05-10T05:23:12.750Z,99824.22
2023-05-10T05:25:40.004Z,99831.13
2023-05-10T05:28:07.272Z,99817.84
2023-05-10T05:30:35.536Z,99835.97
2023-05-10T05:33:03.753Z,99834.75
2023-05-10T05:35:31.873Z,99821.03
2023-05-10T05:38:00.010Z,99828.78
2023-05-10T05:40:27.319Z,99830.41
2023-05-10T05:42:54.558Z,99840.94
2023-05-10T05:45:22.586Z,99835.06
2023-05-10T05:47:50.832Z,99829.75
2023-05-10T05:50:18.973Z,99833.91
2023-05-10T05:52:47.110Z,99840.19
2023-05-10T05:55:15.385Z,99840.78
2023-05-10T05:57:42.885Z,99844.72
2023-05-10T06:00:10.768Z,99843.06
2023-05-10T06:02:38.891Z,99839.13
2023-05-10T06:05:06.878Z,99841.66
2023-05-10T06:07:34.973Z,99833.41
2023-05-10T06:10:04.025Z,99825.19
2023-05-10T06:12:31.289Z,99833.78
2023-05-10T06:14:59.402Z,99829.31
2023-05-10T06:17:26.664Z,99835.63
2023-05-10T06:19:54.877Z,99840.09
2023-05-10T06:22:23.906Z,99842.06
2023-05-10T06:24:52.155Z,99842.47
2023-05-10T06:27:20.275Z,99839.00
2023-05-10T06:29:50.471Z,99839.50
2023-05-10T06:32:20.324Z,99838.53
2023-05-10T06:34:47.863Z,99847.47
2023-05-10T06:37:16.002Z,99845.66
2023-05-10T06:39:43.237Z,99852.97
2023-05-10T06:42:11.398Z,99852.78
2023-05-10T06:44:39.586Z,99853.03
2023-05-10T06:47:07.666Z,99860.94
2023-05-10T06:49:35.872Z,99861.41
2023-05-10T06:52:04.068Z,99853.88
2023-05-10T06:54:32.182Z,99859.84
2023-05-10T06:57:01.836Z,99868.09
2023-05-10T06:59:30.390Z,99862.66
2023-05-10T07:01:58.716Z,99859.50
2023-05-10T07:04:26.816Z,99857.94
2023-05-10T07:06:54.379Z,99851.00
2023-05-10T07:09:22.551Z,99857.13
2023-05-10T07:11:50.619Z,99867.00
2023-05-10T07:14:18.825Z,99864.09
2023-05-10T07:16:47.294Z,99862.09
2023-05-10T07:19:16.017Z,99860.59
2023-05-10T07:21:44.514Z,99860.91
2023-05-10T07:24:12.747Z,99860.78
2023-05-10T07:26:40.983Z,99858.78
2023-05-10T07:29:08.317Z,99860.50
2023-05-10T07:31:36.781Z,99862.41
2023-05-10T07:34:04.872Z,99865.63
2023-05-10T07:36:32.188Z,99855.72
2023-05-10T07:39:00.332Z,99863.13
2023-05-10T07:41:28.689Z,99845.28
2023-05-10T07:43:56.846Z,99853.69
2023-05-10T07:46:24.964Z,99857.19
2023-05-10T07:48:53.143Z,99851.63
2023-05-10T07:51:21.256Z,99856.16
2023-05-10T07:53:49.408Z,99858.34
2023-05-10T07:56:32.932Z,99857.16
2023-05-10T07:59:01.487Z,99865.69
2023-05-10T08:01:33.707Z,99860.28
2023-05-10T08:04:03.088Z,99859.19
2023-05-10T08:06:31.488Z,99855.38
2023-05-10T08:08:59.585Z,99855.00
2023-05-10T08:11:28.789Z,99850.16
2023-05-10T08:13:57.021Z,99850.72
2023-05-10T08:16:27.775Z,99851.69
2023-05-10T08:18:56.771Z,99857.69
2023-05-10T08:21:25.170Z,99849.31
2023-05-10T08:23:53.250Z,99846.91
2023-05-10T08:26:22.751Z,99848.53
2023-05-10T08:28:50.875Z,99855.94
2023-05-10T08:31:19.411Z,99855.22
2023-05-10T08:33:47.544Z,99845.97
2023-05-10T08:36:20.815Z,99847.19
2023-05-10T08:38:53.277Z,99837.44
2023-05-10T08:41:23.362Z,99858.38
2023-05-10T08:43:52.986Z,99863.72
2023-05-10T08:46:23.355Z,99846.94
2023-05-10T08:48:55.883Z,99847.69
2023-05-10T08:51:29.078Z,99849.06
2023-05-10T08:53:57.062Z,99841.75
2023-05-10T08:56:25.297Z,99838.44
2023-05-10T08:58:53.652Z,99831.44
2023-05-10T09:01:22.807Z,99840.09
2023-05-10T09:03:52.122Z,99840.06
2023-05-10T09:06:19.964Z,99842.94
2023-05-10T09:08:48.878Z,99841.41
2023-05-10T09:11:16.434Z,99834.69
2023-05-10T09:13:45.083Z,99838.66
2023-05-10T09:16:21.325Z,99834.59
2023-05-10T09:18:50.687Z,99840.06
2023-05-10T09:21:20.934Z,99838.59
2023-05-10T09:23:51.473Z,99838.34
2023-05-10T09:26:24.550Z,99836.22
2023-05-10T09:29:00.513Z,99830.09
2023-05-10T09:31:48.583Z,99836.47
2023-05-10T09:34:22.248Z,99832.41
2023-05-10T09:36:55.156Z,99830.59
2023-05-10T09:39:35.377Z,99825.84
2023-05-10T09:42:11.496Z,99829.34
2023-05-10T09:44:39.419Z,99826.19
2023-05-10T09:47:07.527Z,99824.44
2023-05-10T09:49:36.593Z,99821.22
2023-05-10T09:52:09.165Z,99820.34
2023-05-10T09:54:37.187Z,99809.84
2023-05-10T09:57:24.723Z,99813.31
2023-05-10T09:59:52.918Z,99811.41
2023-05-10T10:02:20.985Z,99812.63
2023-05-10T10:04:52.146Z,99802.34
2023-05-10T10:07:28.242Z,99806.63
2023-05-10T10:09:56.872Z,99803.13
2023-05-10T10:12:24.837Z,99807.00
2023-05-10T10:14:54.881Z,99805.34
2023-05-10T10:17:29.037Z,99801.59
2023-05-10T10:19:58.525Z,99801.03
2023-05-10T10:22:27.504Z,99794.47
2023-05-10T10:24:56.601Z,99793.38
2023-05-10T10:27:42.887Z,99795.97
2023-05-10T10:30:40.266Z,99799.03
2023-05-10T10:33:57.739Z,99789.81
2023-05-10T10:36:28.359Z,99788.78
2023-05-10T10:39:00.407Z,99795.09
2023-05-10T10:41:44.188Z,99792.53
2023-05-10T10:44:39.332Z,99789.66
2023-05-10T10:47:19.771Z,99789.47
2023-05-10T10:49:53.978Z,99776.13
2023-05-10T10:52:34.621Z,99782.78
2023-05-10T10:55:23.599Z,99769.91
2023-05-10T10:58:03.483Z,99771.63
2023-05-10T11:00:38.295Z,99772.75
2023-05-10T11:03:18.063Z,99772.16
2023-05-10T11:05:52.468Z,99766.53
2023-05-10T11:08:37.545Z,99756.53
2023-05-10T11:11:08.683Z,99756.56
2023-05-10T11:13:49.223Z,99754.72
2023-05-10T11:16:28.043Z,99751.00
2023-05-10T11:19:10.537Z,99751.00
2023-05-10T11:21:51.842Z,99755.28
2023-05-10T11:24:27.000Z,99738.38
2023-05-10T11:26:54.946Z,99752.00
2023-05-10T11:29:24.313Z,99748.31
2023-05-10T11:31:53.329Z,99751.28
2023-05-10T11:34:32.013Z,99744.16
2023-05-10T11:36:59.621Z,99736.97
2023-05-10T11:39:32.913Z,99738.72
2023-05-10T11:42:02.006Z,99737.19
2023-05-10T11:44:32.858Z,99734.06
2023-05-10T11:47:02.683Z,99735.41
2023-05-10T11:49:33.459Z,99738.66
2023-05-10T11:52:09.331Z,99735.50
2023-05-10T11:54:38.489Z,99733.63
2023-05-10T11:57:07.503Z,99734.03
2023-05-10T11:59:34.750Z,99733.31
2023-05-10T12:02:02.353Z,99731.13
2023-05-10T12:04:30.789Z,99736.38
2023-05-10T12:06:58.120Z,99731.94
2023-05-10T12:11:58.951Z,99731.88
2023-05-10T12:14:26.281Z,99729.28
2023-05-10T12:16:53.679Z,99724.38
2023-05-10T12:19:22.838Z,99721.72
2023-05-10T12:21:50.733Z,99726.84
2023-05-10T12:24:19.131Z,99716.94
2023-05-10T12:26:49.520Z,99732.44
2023-05-10T12:29:21.305Z,99725.06
2023-05-10T12:32:00.708Z,99719.50
2023-05-10T12:34:37.380Z,99719.44
2023-05-10T12:37:05.662Z,99714.50
2023-05-10T12:39:47.265Z,99713.28
2023-05-10T12:42:16.337Z,99707.44
2023-05-10T12:44:45.364Z,99701.84
2023-05-10T12:47:13.329Z,99694.22
2023-05-10T12:49:40.594Z,99691.53
2023-05-10T12:52:07.835Z,99694.94
2023-05-10T12:54:37.495Z,99697.22
2023-05-10T12:57:05.425Z,99694.50
2023-05-10T12:59:33.936Z,99693.69
2023-05-10T13:02:03.784Z,99684.06
2023-05-10T13:04:31.723Z,99681.44
2023-05-10T13:07:00.756Z,99680.31
2023-05-10T13:09:32.255Z,99677.41
2023-05-10T13:12:00.247Z,99675.94
2023-05-10T13:14:31.429Z,99676.47
2023-05-10T13:16:59.650Z,99664.94
2023-05-10T13:19:27.718Z,99662.13
2023-05-10T13:21:56.017Z,99671.91
2023-05-10T13:24:23.540Z,99673.41
2023-05-10T13:26:50.819Z,99672.28
2023-05-10T13:29:19.274Z,99657.63
2023-05-10T13:31:47.068Z,99659.09
2023-05-10T13:34:14.344Z,99658.16
2023-05-10T13:36:41.523Z,99654.09
2023-05-10T13:39:09.677Z,99645.88
2023-05-10T13:41:37.910Z,99648.88
2023-05-10T13:44:05.183Z,99645.72
2023-05-10T13:46:32.734Z,99649.88
2023-05-10T13:49:00.067Z,99650.00
2023-05-10T13:51:27.783Z,99649.16
2023-05-10T13:53:54.964Z,99648.88
2023-05-10T13:56:22.198Z,99645.00
2023-05-10T13:58:49.344Z,99644.84
2023-05-10T14:01:16.620Z,99639.94
2023-05-10T14:03:44.000Z,99639.31
2023-05-10T14:06:11.569Z,99632.19
2023-05-10T14:08:38.862Z,99631.34
2023-05-10T14:11:06.309Z,99643.06
2023-05-10T14:13:34.013Z,99642.28
2023-05-10T14:16:01.897Z,99634.69
2023-05-10T14:18:29.578Z,99635.03
2023-05-10T14:20:56.984Z,99623.88
2023-05-10T14:23:27.255Z,99627.94
2023-05-10T14:25:54.594Z,99628.72
2023-05-10T14:28:22.108Z,99626.41
2023-05-10T14:30:49.434Z,99618.69
2023-05-10T14:33:18.640Z,99627.44
2023-05-10T14:35:46.905Z,99617.06
2023-05-10T14:38:16.349Z,99614.28
2023-05-10T14:40:45.548Z,99607.06
2023-05-10T14:43:13.247Z,99617.91
2023-05-10T14:45:40.478Z,99615.22
2023-05-10T14:48:09.476Z,99611.72
2023-05-10T14:50:37.512Z,99612.63
2023-05-10T14:53:05.061Z,99612.50
2023-05-10T14:55:32.403Z,99606.88
2023-05-10T14:57:59.830Z,99612.25
2023-05-10T15:00:28.056Z,99604.72
2023-05-10T15:02:55.799Z,99608.66
2023-05-10T15:05:25.447Z,99612.25
2023-05-10T15:07:53.681Z,99607.53
2023-05-10T15:10:20.940Z,99610.28
2023-05-10T15:12:48.152Z,99606.50
2023-05-10T15:15:16.381Z,99609.88
2023-05-10T15:17:43.888Z,99605.66
2023-05-10T15:20:11.511Z,99600.00
2023-05-10T15:22:39.463Z,99617.44
2023-05-10T15:25:07.312Z,99606.56
2023-05-10T15:27:36.563Z,99604.13
2023-05-10T15:30:05.399Z,99602.72
2023-05-10T15:32:32.661Z,99611.78
2023-05-10T15:35:01.761Z,99605.75
2023-05-10T15:37:29.942Z,99596.16
2023-05-10T15:40:04.777Z,99600.19
2023-05-10T15:42:33.033Z,99597.75
2023-05-10T15:45:01.325Z,99600.31
2023-05-10T15:47:31.445Z,99594.16
2023-05-10T15:50:00.485Z,99600.53
2023-05-10T15:52:29.620Z,99598.19
2023-05-10T15:54:56.836Z,99584.06
2023-05-10T15:57:25.896Z,99593.63
2023-05-10T15:59:54.912Z,99591.31
2023-05-10T16:02:24.243Z,99595.38
2023-05-10T16:04:53.239Z,99587.00
2023-05-10T16:07:22.268Z,99589.41
2023-05-10T16:09:51.358Z,99595.47
2023-05-10T16:12:18.775Z,99593.88
2023-05-10T16:14:48.063Z,99595.16
2023-05-10T16:17:15.722Z,99591.66
2023-05-10T16:19:46.993Z,99590.72
2023-05-10T16:22:15.993Z,99590.84
2023-05-10T16:24:44.118Z,99595.47
2023-05-10T16:27:12.745Z,99585.22
2023-05-10T16:29:43.466Z,99596.69
2023-05-10T16:32:11.634Z,99595.38
2023-05-10T16:34:38.894Z,99593.09
2023-05-10T16:37:06.255Z,99594.41
2023-05-10T16:39:34.300Z,99595.28
2023-05-10T16:42:03.332Z,99601.31
2023-05-10T16:44:31.357Z,99596.75
2023-05-10T16:47:00.438Z,99594.22
2023-05-10T16:49:27.821Z,99601.69
2023-05-10T16:51:58.532Z,99603.97
2023-05-10T16:54:29.388Z,99603.41
2023-05-10T16:56:56.569Z,99611.44
2023-05-10T16:59:23.786Z,99606.84
2023-05-10T17:01:53.410Z,99607.41
2023-05-10T17:04:22.515Z,99614.56
2023-05-10T17:06:49.719Z,99616.81
2023-05-10T17:09:16.916Z,99613.25
2023-05-10T17:11:44.102Z,99615.66
2023-05-10T17:14:11.347Z,99611.63
2023-05-10T17:16:38.666Z,99615.06
2023-05-10T17:19:06.031Z,99615.63
2023-05-10T17:21:33.308Z,99619.59
2023-05-10T17:24:00.593Z,99623.84
2023-05-10T17:26:27.956Z,99623.94
2023-05-10T17:28:59.110Z,99616.38
2023-05-10T17:31:30.113Z,99622.88
2023-05-10T17:34:00.070Z,99621.66
2023-05-10T17:36:28.526Z,99629.72
2023-05-10T17:38:57.655Z,99625.09
2023-05-10T17:41:24.971Z,99629.31
2023-05-10T17:43:52.167Z,99635.31
2023-05-10T17:46:19.404Z,99626.09
2023-05-10T17:48:48.412Z,99625.59
2023-05-10T17:51:20.595Z,99626.09
2023-05-10T17:53:47.873Z,99627.13
2023-05-10T17:56:15.131Z,99629.34
2023-05-10T17:58:42.458Z,99633.53
2023-05-10T18:01:10.944Z,99626.75
2023-05-10T18:03:39.992Z,99630.66
2023-05-10T18:06:09.066Z,99632.69
2023-05-10T18:08:36.389Z,99635.53
2023-05-10T18:11:05.356Z,99642.88
2023-05-10T18:13:34.431Z,99635.16
2023-05-10T18:16:05.974Z,99636.50
2023-05-10T18:18:33.313Z,99637.53
2023-05-10T18:21:01.080Z,99638.88
2023-05-10T18:23:28.357Z,99640.94
2023-05-10T18:25:56.839Z,99644.47
2023-05-10T18:28:25.037Z,99635.38
2023-05-10T18:30:55.463Z,99649.88
2023-05-10T18:33:22.821Z,99640.56
2023-05-10T18:35:51.189Z,99648.88
2023-05-10T18:38:20.411Z,99652.06
2023-05-10T18:40:48.576Z,99657.69
2023-05-10T18:43:15.856Z,99658.16
2023-05-10T18:45:44.249Z,99655.28
2023-05-10T18:48:12.369Z,99660.19
2023-05-10T18:50:40.362Z,99657.69
2023-05-10T18:53:07.900Z,99656.75
2023-05-10T18:55:37.016Z,99658.59
2023-05-10T18:58:05.058Z,99660.34
2023-05-10T19:00:36.356Z,99660.31
2023-05-10T19:03:04.231Z,99665.91
2023-05-10T19:05:31.911Z,99669.31
2023-05-10T19:07:59.244Z,99665.69
2023-05-10T19:10:26.704Z,99661.63
2023-05-10T19:12:53.999Z,99667.47
2023-05-10T19:15:23.686Z,99674.81
2023-05-10T19:17:51.305Z,99671.38
2023-05-10T19:20:18.668Z,99674.13
2023-05-10T19:22:58.438Z,99679.88
2023-05-10T19:25:35.673Z,99674.78
2023-05-10T19:28:02.937Z,99672.41
2023-05-10T19:30:32.144Z,99676.66
2023-05-10T19:33:04.362Z,99681.72
2023-05-10T19:35:31.705Z,99679.25
2023-05-10T19:37:59.696Z,99685.63
2023-05-10T19:40:27.052Z,99675.09
2023-05-10T19:42:57.293Z,99674.28
2023-05-10T19:45:25.386Z,99671.53
2023-05-10T19:47:53.009Z,99675.16
2023-05-10T19:50:20.602Z,99669.69
2023-05-10T19:52:48.680Z,99679.94
2023-05-10T19:55:28.399Z,99676.31
2023-05-10T19:57:56.014Z,99678.66
2023-05-10T20:00:23.507Z,99671.78
2023-05-10T20:02:51.027Z,99666.94
2023-05-10T20:05:18.404Z,99665.97
2023-05-10T20:07:45.777Z,99670.09
2023-05-10T20:10:13.136Z,99657.69
2023-05-10T20:15:27.676Z,99662.97
2023-05-10T20:17:56.981Z,99667.25
2023-05-10T20:20:28.259Z,99666.81
2023-05-10T20:22:56.046Z,99663.78
2023-05-10T20:25:30.041Z,99663.97
2023-05-10T20:27:59.395Z,99668.72
2023-05-10T20:30:27.027Z,99667.19
2023-05-10T20:33:04.577Z,99672.81
2023-05-10T20:35:34.452Z,99673.34
2023-05-10T20:38:02.708Z,99667.97
2023-05-10T20:40:30.004Z,99670.63
2023-05-10T20:42:58.152Z,99670.69
2023-05-10T20:45:26.319Z,99669.03
2023-05-10T20:47:54.519Z,99672.06
2023-05-10T20:50:21.768Z,99669.13
2023-05-10T20:52:52.445Z,99662.88
2023-05-10T20:55:20.847Z,99667.56
2023-05-10T20:57:48.868Z,99664.13
2023-05-10T21:00:24.189Z,99663.13
2023-05-10T21:02:52.244Z,99659.66
2023-05-10T21:05:21.441Z,99673.09
2023-05-10T21:07:49.713Z,99662.00
2023-05-10T21:10:17.362Z,99664.38
2023-05-10T21:12:46.461Z,99661.13
2023-05-10T21:15:13.846Z,99663.41
2023-05-10T21:17:41.952Z,99660.06
2023-05-10T21:20:10.012Z,99661.53
2023-05-10T21:22:37.290Z,99668.81
2023-05-10T21:25:06.513Z,99660.88
2023-05-10T21:27:35.108Z,99660.88
2023-05-10T21:30:04.827Z,99657.50
2023-05-10T21:32:32.159Z,99661.63
2023-05-10T21:34:59.625Z,99661.03
2023-05-10T21:37:26.939Z,99660.38
2023-05-10T21:39:55.096Z,99671.28
2023-05-10T21:42:22.353Z,99667.88
2023-05-10T21:44:49.618Z,99671.13
2023-05-10T21:47:17.710Z,99667.63
2023-05-10T21:49:45.861Z,99666.31
2023-05-10T21:52:14.075Z,99670.56
2023-05-10T21:54:43.426Z,99672.66
2023-05-10T21:57:11.578Z,99668.25
2023-05-10T21:59:40.154Z,99672.34
2023-05-10T22:02:08.458Z,99674.34
2023-05-10T22:04:36.653Z,99677.72
2023-05-10T22:07:04.923Z,99678.19
2023-05-10T22:09:32.183Z,99674.88
2023-05-10T22:11:59.446Z,99683.91
2023-05-10T22:14:27.592Z,99687.59
2023-05-10T22:16:55.954Z,99689.75
2023-05-10T22:19:24.254Z,99692.25
2023-05-10T22:21:53.366Z,99678.00
2023-05-10T22:24:20.641Z,99688.09
2023-05-10T22:26:47.956Z,99676.16
2023-05-10T22:29:15.319Z,99684.09
2023-05-10T22:31:43.367Z,99685.34
2023-05-10T22:34:10.705Z,99680.31
2023-05-10T22:36:39.158Z,99683.13
2023-05-10T22:39:06.462Z,99688.50
2023-05-10T22:41:34.852Z,99688.38
2023-05-10T22:44:02.950Z,99685.41
2023-05-10T22:46:33.832Z,99680.38
2023-05-10T22:49:02.075Z,99687.13
2023-05-10T22:51:29.370Z,99688.03
2023-05-10T22:53:56.577Z,99683.16
2023-05-10T22:56:23.876Z,99686.31
2023-05-10T22:58:53.017Z,99683.38
2023-05-10T23:01:20.431Z,99689.06
2023-05-10T23:03:47.813Z,99689.00
2023-05-10T23:06:15.136Z,99684.78
2023-05-10T23:08:42.442Z,99697.63
2023-05-10T23:11:10.499Z,99686.53
2023-05-10T23:13:37.777Z,99696.47
2023-05-10T23:16:06.823Z,99685.06
2023-05-10T23:18:35.220Z,99689.00
2023-05-10T23:21:03.326Z,99686.63
2023-05-10T23:23:32.946Z,99686.75
2023-05-10T23:26:02.169Z,99685.75
2023-05-10T23:28:30.287Z,99695.19
2023-05-10T23:30:59.319Z,99693.25
2023-05-10T23:33:27.063Z,99682.25
2023-05-10T23:35:55.394Z,99691.22
2023-05-10T23:38:23.599Z,99682.50
2023-05-10T23:40:51.791Z,99682.31
2023-05-10T23:43:21.007Z,99678.00
2023-05-10T23:45:56.911Z,99686.91
2023-05-10T23:48:25.320Z,99684.19
2023-05-10T23:50:52.614Z,99691.44
2023-05-10T23:53:20.022Z,99691.69
2023-05-10T23:55:48.192Z,99693.06
2023-05-10T23:58:16.631Z,99695.19
